createdAt,value
2023-05-17T00:00:16.294Z,27.45
2023-05-17T00:02:43.061Z,26.23
2023-05-17T00:05:11.681Z,26.33
2023-05-17T00:07:38.260Z,29.02
2023-05-17T00:10:05.472Z,28.42
2023-05-17T00:12:32.171Z,29.98
2023-05-17T00:14:59.175Z,31.13
2023-05-17T00:17:26.171Z,32.22
2023-05-17T00:19:53.010Z,32.03
2023-05-17T00:22:19.661Z,32.30
2023-05-17T00:24:46.314Z,32.72
2023-05-17T00:27:12.956Z,32.03
2023-05-17T00:29:39.564Z,32.65
2023-05-17T00:32:06.546Z,32.35
2023-05-17T00:34:33.372Z,34.22
2023-05-17T00:36:59.965Z,34.03
2023-05-17T00:39:26.633Z,31.80
2023-05-17T00:41:53.526Z,31.85
2023-05-17T00:44:20.778Z,29.13
2023-05-17T00:46:47.478Z,32.78
2023-05-17T00:49:14.171Z,32.80
2023-05-17T00:51:41.012Z,35.13
2023-05-17T00:54:07.706Z,36.03
2023-05-17T00:56:34.449Z,35.00
2023-05-17T00:59:02.193Z,29.95
2023-05-17T01:01:29.565Z,31.10
2023-05-17T01:03:57.659Z,29.85
2023-05-17T01:06:24.502Z,29.10
2023-05-17T01:08:51.302Z,27.70
2023-05-17T01:11:29.384Z,24.55
2023-05-17T01:14:02.487Z,24.55
2023-05-17T01:16:39.415Z,21.95
2023-05-17T01:19:21.192Z,23.83
2023-05-17T01:22:08.656Z,23.73
2023-05-17T01:25:04.960Z,21.17
2023-05-17T01:27:32.828Z,21.77
2023-05-17T01:30:01.749Z,22.17
2023-05-17T01:32:30.239Z,20.92
2023-05-17T01:34:57.048Z,20.67
2023-05-17T01:37:23.645Z,21.05
2023-05-17T01:39:50.357Z,19.60
2023-05-17T01:42:40.237Z,20.58
2023-05-17T01:45:15.926Z,19.50
2023-05-17T01:48:04.124Z,20.15
2023-05-17T01:50:32.781Z,20.98
2023-05-17T01:53:07.712Z,21.25
2023-05-17T01:55:46.373Z,21.10
2023-05-17T01:58:14.040Z,21.48
2023-05-17T02:00:43.935Z,19.55
2023-05-17T02:03:20.599Z,19.52
2023-05-17T02:05:47.659Z,19.77
2023-05-17T02:08:14.546Z,20.27
2023-05-17T02:10:41.349Z,21.15
2023-05-17T02:13:08.143Z,20.42
2023-05-17T02:15:35.020Z,19.35
2023-05-17T02:18:01.711Z,20.70
2023-05-17T02:20:28.346Z,17.92
2023-05-17T02:22:55.008Z,18.02
2023-05-17T02:25:22.032Z,17.92
2023-05-17T02:27:48.669Z,16.50
2023-05-17T02:30:18.081Z,18.05
2023-05-17T02:32:45.327Z,19.08
2023-05-17T02:35:12.193Z,18.63
2023-05-17T02:37:38.835Z,19.80
2023-05-17T02:40:09.953Z,19.70
2023-05-17T02:42:36.839Z,19.45
2023-05-17T02:45:04.771Z,17.98
2023-05-17T02:47:31.692Z,16.95
2023-05-17T02:49:58.354Z,17.40
2023-05-17T02:52:25.317Z,17.80
2023-05-17T02:54:52.352Z,18.02
2023-05-17T02:57:19.512Z,18.38
2023-05-17T02:59:46.403Z,19.30
2023-05-17T03:02:13.218Z,17.55
2023-05-17T03:04:40.070Z,18.52
2023-05-17T03:07:07.386Z,18.67
2023-05-17T03:09:34.570Z,18.27
2023-05-17T03:12:01.544Z,19.10
2023-05-17T03:14:28.261Z,19.85
2023-05-17T03:16:54.988Z,17.90
2023-05-17T03:19:21.646Z,14.25
2023-05-17T03:21:48.349Z,14.00
2023-05-17T03:24:15.089Z,14.38
2023-05-17T03:26:41.659Z,14.13
2023-05-17T03:29:08.499Z,15.00
2023-05-17T03:31:35.313Z,16.58
2023-05-17T03:34:02.097Z,15.07
2023-05-17T03:36:28.970Z,13.82
2023-05-17T03:38:55.856Z,13.75
2023-05-17T03:41:23.101Z,15.05
2023-05-17T03:43:50.212Z,14.50
2023-05-17T03:46:17.273Z,15.30
2023-05-17T03:48:43.872Z,13.80
2023-05-17T03:51:10.591Z,13.45
2023-05-17T03:53:41.298Z,12.65
2023-05-17T03:56:08.056Z,12.90
2023-05-17T03:58:34.746Z,13.45
2023-05-17T04:01:01.738Z,14.02
2023-05-17T04:03:28.529Z,13.38
2023-05-17T04:06:01.557Z,12.40
2023-05-17T04:08:28.351Z,12.18
2023-05-17T04:10:55.081Z,11.65
2023-05-17T04:13:21.649Z,11.27
2023-05-17T04:15:48.288Z,11.57
2023-05-17T04:18:15.122Z,10.35
2023-05-17T04:20:42.378Z,10.43
2023-05-17T04:23:09.051Z,10.20
2023-05-17T04:25:35.646Z,11.10
2023-05-17T04:28:02.237Z,9.52
2023-05-17T04:30:28.828Z,10.98
2023-05-17T04:32:55.813Z,11.68
2023-05-17T04:35:22.499Z,11.95
2023-05-17T04:37:49.247Z,12.02
2023-05-17T04:40:16.009Z,11.15
2023-05-17T04:42:42.567Z,11.52
2023-05-17T04:45:09.676Z,11.73
2023-05-17T04:47:37.268Z,11.93
2023-05-17T04:50:04.793Z,10.35
2023-05-17T04:52:32.491Z,11.57
2023-05-17T04:54:59.110Z,10.55
2023-05-17T04:57:25.835Z,12.30
2023-05-17T04:59:52.445Z,11.00
2023-05-17T05:02:19.205Z,11.80
2023-05-17T05:04:46.096Z,9.95
2023-05-17T05:07:12.886Z,11.48
2023-05-17T05:09:39.504Z,10.45
2023-05-17T05:12:06.508Z,11.25
2023-05-17T05:14:33.239Z,10.73
2023-05-17T05:16:59.888Z,10.38
2023-05-17T05:19:26.571Z,9.57
2023-05-17T05:21:53.456Z,10.07
2023-05-17T05:24:20.146Z,10.63
2023-05-17T05:26:46.931Z,10.75
2023-05-17T05:29:13.995Z,11.60
2023-05-17T05:31:40.612Z,9.82
2023-05-17T05:34:07.578Z,9.23
2023-05-17T05:36:34.717Z,9.20
2023-05-17T05:39:01.550Z,10.93
2023-05-17T05:41:28.290Z,8.85
2023-05-17T05:43:55.074Z,10.43
2023-05-17T05:46:22.156Z,9.13
2023-05-17T05:48:48.916Z,9.75
2023-05-17T05:51:16.000Z,9.95
2023-05-17T05:53:42.753Z,8.98
2023-05-17T05:56:09.781Z,7.63
2023-05-17T05:58:36.919Z,8.23
2023-05-17T06:01:06.013Z,7.57
2023-05-17T06:03:33.088Z,7.85
2023-05-17T06:05:59.890Z,8.82
2023-05-17T06:08:26.913Z,7.65
2023-05-17T06:10:53.985Z,7.38
2023-05-17T06:13:20.666Z,7.72
2023-05-17T06:15:47.407Z,7.72
2023-05-17T06:18:14.155Z,8.45
2023-05-17T06:20:40.905Z,8.20
2023-05-17T06:23:07.612Z,7.72
2023-05-17T06:25:34.418Z,8.30
2023-05-17T06:28:03.163Z,8.00
2023-05-17T06:30:30.705Z,6.85
2023-05-17T06:32:57.836Z,6.70
2023-05-17T06:35:24.506Z,6.40
2023-05-17T06:37:51.593Z,6.38
2023-05-17T06:40:18.248Z,6.03
2023-05-17T06:42:45.161Z,5.30
2023-05-17T06:45:12.870Z,5.15
2023-05-17T06:47:39.712Z,4.93
2023-05-17T06:50:07.504Z,5.35
2023-05-17T06:52:34.765Z,5.90
2023-05-17T06:55:01.391Z,5.43
2023-05-17T06:57:28.047Z,4.28
2023-05-17T06:59:54.729Z,4.95
2023-05-17T07:02:21.588Z,6.10
2023-05-17T07:04:50.768Z,5.40
2023-05-17T07:07:17.959Z,6.65
2023-05-17T07:09:44.657Z,4.50
2023-05-17T07:12:11.376Z,6.82
2023-05-17T07:14:38.008Z,4.85
2023-05-17T07:17:04.893Z,6.93
2023-05-17T07:19:31.645Z,6.18
2023-05-17T07:21:58.700Z,6.00
2023-05-17T07:24:25.392Z,5.80
2023-05-17T07:26:52.602Z,6.25
2023-05-17T07:29:19.533Z,6.18
2023-05-17T07:31:46.160Z,5.82
2023-05-17T07:34:13.955Z,4.40
2023-05-17T07:36:40.877Z,6.30
2023-05-17T07:39:08.824Z,5.95
2023-05-17T07:41:36.182Z,6.10
2023-05-17T07:44:03.587Z,6.18
2023-05-17T07:46:30.764Z,5.53
2023-05-17T07:48:58.818Z,6.38
2023-05-17T07:51:25.797Z,5.85
2023-05-17T07:53:52.531Z,6.68
2023-05-17T07:56:19.187Z,5.72
2023-05-17T07:58:45.939Z,5.10
2023-05-17T08:01:12.625Z,5.20
2023-05-17T08:03:39.720Z,6.30
2023-05-17T08:06:06.600Z,6.97
2023-05-17T08:08:33.243Z,6.75
2023-05-17T08:10:59.820Z,5.53
2023-05-17T08:13:26.690Z,6.53
2023-05-17T08:16:01.186Z,5.53
2023-05-17T08:18:28.474Z,5.90
2023-05-17T08:20:55.776Z,7.25
2023-05-17T08:23:22.512Z,6.45
2023-05-17T08:25:49.188Z,6.57
2023-05-17T08:28:15.864Z,6.13
2023-05-17T08:30:42.484Z,7.13
2023-05-17T08:33:12.297Z,7.32
2023-05-17T08:35:39.084Z,7.10
2023-05-17T08:38:05.803Z,8.00
2023-05-17T08:40:32.703Z,7.85
2023-05-17T08:43:00.037Z,6.50
2023-05-17T08:45:29.425Z,8.57
2023-05-17T08:47:56.522Z,8.40
2023-05-17T08:50:24.041Z,6.30
2023-05-17T08:52:51.385Z,7.95
2023-05-17T08:55:18.341Z,7.60
2023-05-17T08:57:45.230Z,6.07
2023-05-17T09:00:15.732Z,6.03
2023-05-17T09:02:43.134Z,6.65
2023-05-17T09:05:10.875Z,6.55
2023-05-17T09:07:37.780Z,6.57
2023-05-17T09:10:06.007Z,5.88
2023-05-17T09:12:35.064Z,6.47
2023-05-17T09:15:19.667Z,4.93
2023-05-17T09:17:56.979Z,7.15
2023-05-17T09:20:25.808Z,9.13
2023-05-17T09:22:52.672Z,8.00
2023-05-17T09:25:21.101Z,8.75
2023-05-17T09:27:47.896Z,9.25
2023-05-17T09:30:14.693Z,8.35
2023-05-17T09:35:15.743Z,8.38
2023-05-17T09:37:43.322Z,7.90
2023-05-17T09:40:10.767Z,7.72
2023-05-17T09:42:39.215Z,6.53
2023-05-17T09:45:06.605Z,8.23
2023-05-17T09:47:35.966Z,7.03
2023-05-17T09:50:04.932Z,7.93
2023-05-17T09:52:32.209Z,8.60
2023-05-17T09:55:00.842Z,6.22
2023-05-17T09:57:29.194Z,5.38
2023-05-17T09:59:57.548Z,6.10
2023-05-17T10:02:28.911Z,8.25
2023-05-17T10:04:58.347Z,6.65
2023-05-17T10:07:26.690Z,7.70
2023-05-17T10:09:56.063Z,7.15
2023-05-17T10:12:25.053Z,6.43
2023-05-17T10:14:55.889Z,5.82
2023-05-17T10:17:26.718Z,5.10
2023-05-17T10:19:54.770Z,4.72
2023-05-17T10:22:23.791Z,4.53
2023-05-17T10:24:52.254Z,4.93
2023-05-17T10:27:21.680Z,3.67
2023-05-17T10:29:50.738Z,2.65
2023-05-17T10:32:22.990Z,4.13
2023-05-17T10:35:01.385Z,2.75
2023-05-17T10:37:36.833Z,3.58
2023-05-17T10:40:03.992Z,4.53
2023-05-17T10:42:32.294Z,4.28
2023-05-17T10:45:01.515Z,3.35
2023-05-17T10:47:34.617Z,4.18
2023-05-17T10:50:02.114Z,3.88
2023-05-17T10:52:28.777Z,5.70
2023-05-17T10:54:57.187Z,4.80
2023-05-17T10:57:51.072Z,5.25
2023-05-17T11:00:22.276Z,3.72
2023-05-17T11:02:50.971Z,7.70
2023-05-17T11:05:25.839Z,4.93
2023-05-17T11:07:53.058Z,4.25
2023-05-17T11:10:19.886Z,4.57
2023-05-17T11:12:54.312Z,5.22
2023-05-17T11:15:28.238Z,4.55
2023-05-17T11:17:57.685Z,4.05
2023-05-17T11:20:27.555Z,3.58
2023-05-17T11:23:06.078Z,3.80
2023-05-17T11:25:38.179Z,4.95
2023-05-17T11:28:08.985Z,3.67
2023-05-17T11:30:41.467Z,5.25
2023-05-17T11:33:20.478Z,3.92
2023-05-17T11:35:55.629Z,4.65
2023-05-17T11:38:30.580Z,5.70
2023-05-17T11:40:57.970Z,4.65
2023-05-17T11:43:31.038Z,5.13
2023-05-17T11:46:02.345Z,4.70
2023-05-17T11:48:30.432Z,5.25
2023-05-17T11:50:58.040Z,4.57
2023-05-17T11:53:27.652Z,5.20
2023-05-17T11:55:54.331Z,5.30
2023-05-17T11:58:24.997Z,4.93
2023-05-17T12:00:56.921Z,3.65
2023-05-17T12:03:33.808Z,5.03
2023-05-17T12:06:13.235Z,5.07
2023-05-17T12:08:44.462Z,4.22
2023-05-17T12:11:14.877Z,3.75
2023-05-17T12:13:44.235Z,5.75
2023-05-17T12:16:17.906Z,1.40
2023-05-17T12:18:50.970Z,5.13
2023-05-17T12:21:19.209Z,5.55
2023-05-17T12:23:49.622Z,4.25
2023-05-17T12:26:22.614Z,2.50
2023-05-17T12:28:59.957Z,4.50
2023-05-17T12:31:29.033Z,4.65
2023-05-17T12:33:56.406Z,4.38
2023-05-17T12:36:23.603Z,4.20
2023-05-17T12:38:50.755Z,4.75
2023-05-17T12:41:18.276Z,5.05
2023-05-17T12:43:46.652Z,5.20
2023-05-17T12:46:19.069Z,4.47
2023-05-17T12:48:47.114Z,5.90
2023-05-17T12:51:16.146Z,5.03
2023-05-17T12:53:53.076Z,5.22
2023-05-17T12:56:25.092Z,5.60
2023-05-17T12:59:10.427Z,6.00
2023-05-17T13:01:40.138Z,6.32
2023-05-17T13:04:06.879Z,5.20
2023-05-17T13:06:53.498Z,5.85
2023-05-17T13:09:23.921Z,4.90
2023-05-17T13:11:52.461Z,5.03
2023-05-17T13:14:40.015Z,4.90
2023-05-17T13:17:25.476Z,3.13
2023-05-17T13:19:52.544Z,4.75
2023-05-17T13:22:19.443Z,5.32
2023-05-17T13:24:46.150Z,3.92
2023-05-17T13:27:13.286Z,5.93
2023-05-17T13:29:42.158Z,5.38
2023-05-17T13:32:11.760Z,4.68
2023-05-17T13:34:39.057Z,4.20
2023-05-17T13:37:08.667Z,4.38
2023-05-17T13:39:37.272Z,4.80
2023-05-17T13:42:04.558Z,4.72
2023-05-17T13:44:31.700Z,4.03
2023-05-17T13:46:58.759Z,3.40
2023-05-17T13:49:25.956Z,3.58
2023-05-17T13:51:52.679Z,3.05
2023-05-17T13:54:20.827Z,2.28
2023-05-17T13:56:48.830Z,1.70
2023-05-17T13:59:15.630Z,1.58
2023-05-17T14:01:43.436Z,1.75
2023-05-17T14:04:10.236Z,2.15
2023-05-17T14:06:36.904Z,2.22
2023-05-17T14:09:04.152Z,2.05
2023-05-17T14:11:30.852Z,2.13
2023-05-17T14:13:57.558Z,2.10
2023-05-17T14:16:24.268Z,2.03
2023-05-17T14:18:51.134Z,1.55
2023-05-17T14:21:17.997Z,1.40
2023-05-17T14:23:44.750Z,2.83
2023-05-17T14:26:11.981Z,2.13
2023-05-17T14:28:39.102Z,1.00
2023-05-17T14:31:09.566Z,1.88
2023-05-17T14:33:36.652Z,2.33
2023-05-17T14:36:04.165Z,1.45
2023-05-17T14:38:31.237Z,1.38
2023-05-17T14:40:59.159Z,0.93
2023-05-17T14:43:26.428Z,1.02
2023-05-17T14:45:53.497Z,1.63
2023-05-17T14:48:20.389Z,2.30
2023-05-17T14:50:47.221Z,1.63
2023-05-17T14:53:13.921Z,1.42
2023-05-17T14:55:40.676Z,1.60
2023-05-17T14:58:07.548Z,1.63
2023-05-17T15:00:35.304Z,1.65
2023-05-17T15:03:02.108Z,2.05
2023-05-17T15:05:29.303Z,1.98
2023-05-17T15:07:56.658Z,1.63
2023-05-17T15:10:24.280Z,1.55
2023-05-17T15:12:50.984Z,2.53
2023-05-17T15:15:18.438Z,2.53
2023-05-17T15:17:45.268Z,4.18
2023-05-17T15:20:12.403Z,4.00
2023-05-17T15:22:39.331Z,2.50
2023-05-17T15:25:06.529Z,2.72
2023-05-17T15:27:33.198Z,3.50
2023-05-17T15:29:59.953Z,3.58
2023-05-17T15:32:26.777Z,2.75
2023-05-17T15:34:53.847Z,3.25
2023-05-17T15:37:20.442Z,5.93
2023-05-17T15:39:47.142Z,4.35
2023-05-17T15:42:13.837Z,5.88
2023-05-17T15:44:41.332Z,6.03
2023-05-17T15:47:08.512Z,6.32
2023-05-17T15:49:35.562Z,5.30
2023-05-17T15:52:02.473Z,4.53
2023-05-17T15:54:29.542Z,4.40
2023-05-17T15:56:56.375Z,7.85
2023-05-17T15:59:23.014Z,3.78
2023-05-17T16:01:49.832Z,5.72
2023-05-17T16:04:16.911Z,7.68
2023-05-17T16:06:43.844Z,8.32
2023-05-17T16:09:11.953Z,7.70
2023-05-17T16:11:38.786Z,8.45
2023-05-17T16:14:05.956Z,8.65
2023-05-17T16:16:32.700Z,8.88
2023-05-17T16:18:59.395Z,9.25
2023-05-17T16:21:26.216Z,10.25
2023-05-17T16:23:52.979Z,9.32
2023-05-17T16:26:19.796Z,8.70
2023-05-17T16:28:46.636Z,7.75
2023-05-17T16:31:13.404Z,7.63
2023-05-17T16:33:41.482Z,10.05
2023-05-17T16:36:09.097Z,10.10
2023-05-17T16:38:35.800Z,8.98
2023-05-17T16:41:03.422Z,8.20
2023-05-17T16:43:31.462Z,8.00
2023-05-17T16:45:58.975Z,6.72
2023-05-17T16:48:25.870Z,6.85
2023-05-17T16:50:53.006Z,8.73
2023-05-17T16:53:19.736Z,9.30
2023-05-17T16:55:46.458Z,10.02
2023-05-17T16:58:13.282Z,9.32
2023-05-17T17:00:40.097Z,9.65
2023-05-17T17:03:09.267Z,10.63
2023-05-17T17:05:36.633Z,10.10
2023-05-17T17:08:03.443Z,11.20
2023-05-17T17:10:30.524Z,10.80
2023-05-17T17:12:57.523Z,10.57
2023-05-17T17:15:25.148Z,9.65
2023-05-17T17:17:52.742Z,7.32
2023-05-17T17:20:19.920Z,6.32
2023-05-17T17:22:46.947Z,6.55
2023-05-17T17:25:13.705Z,5.65
2023-05-17T17:27:40.738Z,3.97
2023-05-17T17:30:08.231Z,3.97
2023-05-17T17:32:35.056Z,2.40
2023-05-17T17:35:01.956Z,1.70
2023-05-17T17:37:28.709Z,2.42
2023-05-17T17:39:55.622Z,1.88
2023-05-17T17:42:22.327Z,1.60
2023-05-17T17:44:49.757Z,1.20
2023-05-17T17:47:16.823Z,1.70
2023-05-17T17:49:43.535Z,0.70
2023-05-17T17:52:10.145Z,1.10
2023-05-17T17:54:36.921Z,0.70
2023-05-17T17:57:03.926Z,0.95
2023-05-17T17:59:30.847Z,0.60
2023-05-17T18:01:57.555Z,0.70
2023-05-17T18:04:24.249Z,0.82
2023-05-17T18:06:50.998Z,1.10
2023-05-17T18:09:17.600Z,1.40
2023-05-17T18:11:44.318Z,1.02
2023-05-17T18:14:10.960Z,2.08
2023-05-17T18:16:37.884Z,0.98
2023-05-17T18:19:04.638Z,1.08
2023-05-17T18:21:31.457Z,1.60
2023-05-17T18:23:58.158Z,1.70
2023-05-17T18:26:24.805Z,2.25
2023-05-17T18:28:51.414Z,2.15
2023-05-17T18:31:18.931Z,2.35
2023-05-17T18:33:45.706Z,2.35
2023-05-17T18:36:12.607Z,2.65
2023-05-17T18:38:39.500Z,2.70
2023-05-17T18:41:06.751Z,2.40
2023-05-17T18:43:33.548Z,2.08
2023-05-17T18:46:00.186Z,2.10
2023-05-17T18:48:27.989Z,1.88
2023-05-17T18:50:55.078Z,1.95
2023-05-17T18:53:21.865Z,1.33
2023-05-17T18:55:48.613Z,1.73
2023-05-17T18:58:15.248Z,1.85
2023-05-17T19:00:41.916Z,2.03
2023-05-17T19:03:08.682Z,2.63
2023-05-17T19:05:35.530Z,8.77
2023-05-17T19:08:02.152Z,13.57
2023-05-17T19:10:29.098Z,22.98
2023-05-17T19:12:55.984Z,28.35
2023-05-17T19:15:22.857Z,29.58
2023-05-17T19:17:49.701Z,30.63
2023-05-17T19:20:16.722Z,28.52
2023-05-17T19:22:43.381Z,26.25
2023-05-17T19:25:10.260Z,17.00
2023-05-17T19:27:36.849Z,15.82
2023-05-17T19:30:04.227Z,21.50
2023-05-17T19:32:33.242Z,18.80
2023-05-17T19:35:01.371Z,9.43
2023-05-17T19:37:28.617Z,5.88
2023-05-17T19:39:55.842Z,4.32
2023-05-17T19:42:22.580Z,4.60
2023-05-17T19:44:49.285Z,6.55
2023-05-17T19:47:16.088Z,6.70
2023-05-17T19:49:43.387Z,7.43
2023-05-17T19:52:10.343Z,9.05
2023-05-17T19:54:36.963Z,10.57
2023-05-17T19:57:03.777Z,10.63
2023-05-17T19:59:30.573Z,10.05
2023-05-17T20:01:57.453Z,10.18
2023-05-17T20:04:24.207Z,11.70
2023-05-17T20:06:51.200Z,12.25
2023-05-17T20:09:17.861Z,11.60
2023-05-17T20:11:44.543Z,10.60
2023-05-17T20:14:12.388Z,7.88
2023-05-17T20:16:39.209Z,7.00
2023-05-17T20:19:06.125Z,7.28
2023-05-17T20:21:33.469Z,6.97
2023-05-17T20:24:05.449Z,5.45
2023-05-17T20:26:36.581Z,6.30
2023-05-17T20:29:05.728Z,5.85
2023-05-17T20:31:32.734Z,4.20
2023-05-17T20:33:59.683Z,3.13
2023-05-17T20:36:26.467Z,3.10
2023-05-17T20:38:53.633Z,2.65
2023-05-17T20:41:20.654Z,2.50
2023-05-17T20:43:51.800Z,2.35
2023-05-17T20:46:18.948Z,2.63
2023-05-17T20:48:48.045Z,2.38
2023-05-17T20:51:16.215Z,2.15
2023-05-17T20:53:43.120Z,2.97
2023-05-17T20:56:10.645Z,3.42
2023-05-17T20:58:37.258Z,1.95
2023-05-17T21:01:03.881Z,1.95
2023-05-17T21:03:34.215Z,2.58
2023-05-17T21:06:01.993Z,2.25
2023-05-17T21:08:29.626Z,1.15
2023-05-17T21:10:56.683Z,1.70
2023-05-17T21:13:25.756Z,1.42
2023-05-17T21:15:55.978Z,1.27
2023-05-17T21:18:23.915Z,1.65
2023-05-17T21:20:51.723Z,1.10
2023-05-17T21:23:19.416Z,1.10
2023-05-17T21:25:46.184Z,1.38
2023-05-17T21:28:12.936Z,1.35
2023-05-17T21:30:39.697Z,0.93
2023-05-17T21:33:06.506Z,0.70
2023-05-17T21:35:33.249Z,1.10
2023-05-17T21:37:59.937Z,0.88
2023-05-17T21:40:26.753Z,0.73
2023-05-17T21:42:53.484Z,0.80
2023-05-17T21:45:20.213Z,0.85
2023-05-17T21:47:47.020Z,0.80
2023-05-17T21:50:13.895Z,1.10
2023-05-17T21:52:40.887Z,1.17
2023-05-17T21:55:08.667Z,1.50
2023-05-17T21:57:36.824Z,3.90
2023-05-17T22:00:08.062Z,4.15
2023-05-17T22:02:36.153Z,2.28
2023-05-17T22:05:02.956Z,2.58
2023-05-17T22:07:29.836Z,3.17
2023-05-17T22:09:56.587Z,2.05
2023-05-17T22:12:25.727Z,2.30
2023-05-17T22:14:56.893Z,1.85
2023-05-17T22:17:35.260Z,2.95
2023-05-17T22:20:11.475Z,3.20
2023-05-17T22:22:38.433Z,3.40
2023-05-17T22:25:05.901Z,3.28
2023-05-17T22:27:32.595Z,4.05
2023-05-17T22:29:59.264Z,3.80
2023-05-17T22:32:26.236Z,2.63
2023-05-17T22:34:53.101Z,2.38
2023-05-17T22:37:22.864Z,1.90
2023-05-17T22:39:49.917Z,1.92
2023-05-17T22:42:16.644Z,2.17
2023-05-17T22:44:43.268Z,1.88
2023-05-17T22:47:14.859Z,1.27
2023-05-17T22:49:42.361Z,1.25
2023-05-17T22:52:11.118Z,0.95
2023-05-17T22:54:39.189Z,0.90
2023-05-17T22:57:06.501Z,0.70
2023-05-17T22:59:33.316Z,0.60
2023-05-17T23:02:00.336Z,0.60
2023-05-17T23:04:27.394Z,0.68
2023-05-17T23:06:55.095Z,0.60
2023-05-17T23:09:22.431Z,0.70
2023-05-17T23:11:50.466Z,1.40
2023-05-17T23:14:17.678Z,2.10
2023-05-17T23:16:44.389Z,2.63
2023-05-17T23:19:11.127Z,2.35
2023-05-17T23:21:39.640Z,2.40
2023-05-17T23:24:08.146Z,1.75
2023-05-17T23:26:35.222Z,1.73
2023-05-17T23:29:03.673Z,1.63
2023-05-17T23:31:30.464Z,1.77
2023-05-17T23:33:57.150Z,1.40
2023-05-17T23:36:23.845Z,1.10
2023-05-17T23:38:50.513Z,1.00
2023-05-17T23:41:18.518Z,0.88
2023-05-17T23:43:46.911Z,0.60
2023-05-17T23:46:19.915Z,0.90
2023-05-17T23:48:53.054Z,1.00
2023-05-17T23:51:20.542Z,0.63
2023-05-17T23:53:49.222Z,0.75
2023-05-17T23:56:17.534Z,0.82
2023-05-17T23:58:44.968Z,0.65
